createdAt,value
2022-12-11T00:00:48.935Z,78.37
2022-12-11T00:03:19.044Z,81.57
2022-12-11T00:05:49.033Z,68.80
2022-12-11T00:08:16.026Z,76.57
2022-12-11T00:10:49.843Z,70.83
2022-12-11T00:13:16.788Z,79.00
2022-12-11T00:15:44.559Z,78.97
2022-12-11T00:18:14.133Z,81.17
2022-12-11T00:20:41.245Z,77.07
2022-12-11T00:23:08.088Z,72.10
2022-12-11T00:25:34.850Z,74.03
2022-12-11T00:28:01.582Z,79.37
2022-12-11T00:30:28.496Z,83.60
2022-12-11T00:32:58.250Z,75.83
2022-12-11T00:35:25.455Z,77.27
2022-12-11T00:37:52.275Z,91.33
2022-12-11T00:40:19.218Z,75.53
2022-12-11T00:42:46.542Z,74.70
2022-12-11T00:45:13.545Z,72.90
2022-12-11T00:47:40.408Z,73.07
2022-12-11T00:50:07.666Z,80.73
2022-12-11T00:52:34.853Z,73.67
2022-12-11T00:55:05.014Z,71.93
2022-12-11T00:57:31.771Z,76.53
2022-12-11T00:59:58.484Z,77.73
2022-12-11T01:02:25.295Z,73.03
2022-12-11T01:04:52.092Z,71.47
2022-12-11T01:07:19.003Z,78.63
2022-12-11T01:10:04.663Z,73.93
2022-12-11T01:12:31.713Z,70.97
2022-12-11T01:14:58.626Z,70.37
2022-12-11T01:17:25.507Z,96.87
2022-12-11T01:19:54.376Z,74.10
2022-12-11T01:22:21.891Z,84.37
2022-12-11T01:24:48.709Z,86.90
2022-12-11T01:27:15.686Z,82.10
2022-12-11T01:29:42.517Z,77.53
2022-12-11T01:32:09.245Z,85.47
2022-12-11T01:34:39.241Z,83.30
2022-12-11T01:37:06.064Z,77.17
2022-12-11T01:39:33.009Z,85.20
2022-12-11T01:42:01.340Z,82.60
2022-12-11T01:44:30.868Z,72.63
2022-12-11T01:46:58.392Z,85.60
2022-12-11T01:49:28.484Z,74.87
2022-12-11T01:52:07.669Z,80.17
2022-12-11T01:54:34.843Z,90.77
2022-12-11T01:57:08.353Z,78.00
2022-12-11T01:59:38.727Z,75.53
2022-12-11T02:02:22.658Z,70.43
2022-12-11T02:04:49.775Z,89.43
2022-12-11T02:07:17.035Z,81.83
2022-12-11T02:09:46.596Z,83.50
2022-12-11T02:13:01.826Z,78.40
2022-12-11T02:15:48.745Z,75.53
2022-12-11T02:18:19.777Z,70.77
2022-12-11T02:21:13.134Z,71.90
2022-12-11T02:23:48.790Z,74.93
2022-12-11T02:26:43.938Z,83.27
2022-12-11T02:29:19.624Z,75.20
2022-12-11T02:31:53.789Z,88.63
2022-12-11T02:34:24.898Z,66.87
2022-12-11T02:37:02.102Z,77.80
2022-12-11T02:39:30.493Z,72.07
2022-12-11T02:41:58.215Z,74.57
2022-12-11T02:44:30.137Z,88.07
2022-12-11T02:46:58.569Z,66.03
2022-12-11T02:49:28.018Z,64.47
2022-12-11T02:51:58.042Z,63.00
2022-12-11T02:54:31.996Z,69.03
2022-12-11T02:57:13.826Z,65.23
2022-12-11T02:59:44.262Z,64.50
2022-12-11T03:02:15.612Z,65.43
2022-12-11T03:04:43.538Z,69.47
2022-12-11T03:07:15.231Z,65.03
2022-12-11T03:09:44.085Z,56.53
2022-12-11T03:12:14.964Z,66.57
2022-12-11T03:14:42.990Z,74.27
2022-12-11T03:17:18.386Z,61.47
2022-12-11T03:19:59.235Z,59.93
2022-12-11T03:22:40.259Z,62.40
2022-12-11T03:25:19.550Z,64.83
2022-12-11T03:28:21.017Z,67.70
2022-12-11T03:30:51.357Z,64.70
2022-12-11T03:33:30.119Z,66.10
2022-12-11T03:36:03.014Z,56.70
2022-12-11T03:38:42.666Z,55.97
2022-12-11T03:41:11.171Z,56.17
2022-12-11T03:43:39.756Z,60.67
2022-12-11T03:46:09.910Z,67.73
2022-12-11T03:48:42.084Z,61.67
2022-12-11T03:51:09.319Z,57.27
2022-12-11T03:53:37.053Z,52.90
2022-12-11T03:56:06.816Z,45.60
2022-12-11T03:58:33.590Z,45.93
2022-12-11T04:01:00.319Z,45.93
2022-12-11T04:03:27.130Z,45.10
2022-12-11T04:05:55.670Z,49.03
2022-12-11T04:08:23.552Z,46.90
2022-12-11T04:11:14.062Z,45.13
2022-12-11T04:13:41.594Z,43.43
2022-12-11T04:16:09.919Z,48.67
2022-12-11T04:18:55.134Z,41.80
2022-12-11T04:21:40.383Z,36.07
2022-12-11T04:24:16.701Z,42.93
2022-12-11T04:26:45.290Z,37.63
2022-12-11T04:29:12.722Z,47.37
2022-12-11T04:31:39.859Z,41.87
2022-12-11T04:34:07.122Z,40.47
2022-12-11T04:36:33.969Z,32.03
2022-12-11T04:39:00.706Z,35.00
2022-12-11T04:41:28.638Z,38.07
2022-12-11T04:43:55.406Z,40.47
2022-12-11T04:46:24.524Z,45.33
2022-12-11T04:48:56.966Z,37.93
2022-12-11T04:51:24.971Z,38.40
2022-12-11T04:53:51.757Z,36.93
2022-12-11T04:56:18.569Z,39.43
2022-12-11T04:58:45.915Z,33.03
2022-12-11T05:01:19.247Z,37.27
2022-12-11T05:03:47.037Z,35.13
2022-12-11T05:06:14.453Z,43.20
2022-12-11T05:08:43.066Z,34.60
2022-12-11T05:11:12.120Z,34.00
2022-12-11T05:13:39.312Z,33.30
2022-12-11T05:16:08.001Z,34.57
2022-12-11T05:18:35.617Z,36.70
2022-12-11T05:21:06.080Z,41.83
2022-12-11T05:23:33.095Z,37.00
2022-12-11T05:26:03.834Z,38.17
2022-12-11T05:28:33.626Z,31.77
2022-12-11T05:31:03.507Z,36.47
2022-12-11T05:33:30.879Z,39.50
2022-12-11T05:35:57.781Z,37.20
2022-12-11T05:38:24.727Z,35.87
2022-12-11T05:40:59.300Z,32.37
2022-12-11T05:43:27.183Z,37.00
2022-12-11T05:45:55.095Z,34.03
2022-12-11T05:48:22.389Z,34.27
2022-12-11T05:50:59.618Z,36.07
2022-12-11T05:53:26.441Z,34.97
2022-12-11T05:55:53.292Z,35.83
2022-12-11T05:58:20.529Z,37.33
2022-12-11T06:00:48.022Z,40.13
2022-12-11T06:03:14.795Z,38.40
2022-12-11T06:05:42.759Z,37.13
2022-12-11T06:08:10.038Z,43.93
2022-12-11T06:10:37.318Z,42.03
2022-12-11T06:13:04.518Z,41.50
2022-12-11T06:15:32.236Z,40.73
2022-12-11T06:17:58.939Z,43.13
2022-12-11T06:20:25.870Z,39.90
2022-12-11T06:22:52.617Z,46.73
2022-12-11T06:25:19.418Z,43.13
2022-12-11T06:27:46.307Z,43.83
2022-12-11T06:30:13.465Z,42.37
2022-12-11T06:32:40.227Z,44.10
2022-12-11T06:35:07.346Z,42.43
2022-12-11T06:37:36.126Z,38.20
2022-12-11T06:40:04.589Z,41.07
2022-12-11T06:42:31.871Z,41.83
2022-12-11T06:44:59.819Z,42.13
2022-12-11T06:47:27.620Z,43.73
2022-12-11T06:49:55.828Z,42.70
2022-12-11T06:52:23.930Z,42.90
2022-12-11T06:54:50.726Z,44.57
2022-12-11T06:57:18.006Z,42.27
2022-12-11T06:59:44.899Z,53.13
2022-12-11T07:02:14.460Z,42.03
2022-12-11T07:04:42.037Z,42.57
2022-12-11T07:07:09.254Z,43.47
2022-12-11T07:09:39.398Z,40.33
2022-12-11T07:12:07.220Z,50.23
2022-12-11T07:14:34.106Z,43.07
2022-12-11T07:17:00.889Z,44.50
2022-12-11T07:19:27.839Z,44.63
2022-12-11T07:21:54.655Z,45.97
2022-12-11T07:24:22.007Z,42.00
2022-12-11T07:26:48.976Z,40.20
2022-12-11T07:29:15.738Z,42.67
2022-12-11T07:31:42.619Z,42.33
2022-12-11T07:34:12.798Z,45.13
2022-12-11T07:36:39.687Z,46.13
2022-12-11T07:39:07.646Z,49.57
2022-12-11T07:41:34.493Z,50.40
2022-12-11T07:44:01.392Z,42.60
2022-12-11T07:46:30.612Z,41.30
2022-12-11T07:48:57.517Z,48.40
2022-12-11T07:51:28.115Z,46.27
2022-12-11T07:53:59.506Z,47.67
2022-12-11T07:56:27.659Z,46.23
2022-12-11T07:58:54.653Z,51.00
2022-12-11T08:01:28.951Z,46.87
2022-12-11T08:03:56.754Z,47.57
2022-12-11T08:06:29.543Z,48.10
2022-12-11T08:08:57.558Z,44.07
2022-12-11T08:11:25.383Z,42.83
2022-12-11T08:13:53.243Z,46.00
2022-12-11T08:16:23.370Z,42.47
2022-12-11T08:18:51.088Z,45.23
2022-12-11T08:21:23.829Z,46.27
2022-12-11T08:23:52.087Z,40.77
2022-12-11T08:26:25.755Z,43.80
2022-12-11T08:28:52.796Z,41.03
2022-12-11T08:31:20.631Z,39.23
2022-12-11T08:33:48.376Z,45.47
2022-12-11T08:36:17.733Z,40.33
2022-12-11T08:38:44.944Z,45.67
2022-12-11T08:41:17.326Z,37.33
2022-12-11T08:43:44.616Z,35.00
2022-12-11T08:46:12.894Z,37.93
2022-12-11T08:48:41.954Z,32.67
2022-12-11T08:51:13.927Z,40.43
2022-12-11T08:53:41.175Z,33.53
2022-12-11T08:56:10.903Z,30.60
2022-12-11T08:58:38.111Z,35.77
2022-12-11T09:01:13.278Z,35.43
2022-12-11T09:03:42.320Z,36.73
2022-12-11T09:06:15.364Z,39.10
2022-12-11T09:08:50.208Z,41.07
2022-12-11T09:11:22.386Z,38.97
2022-12-11T09:13:49.404Z,44.47
2022-12-11T09:16:19.314Z,41.30
2022-12-11T09:18:47.992Z,40.13
2022-12-11T09:21:17.206Z,33.80
2022-12-11T09:23:44.741Z,37.37
2022-12-11T09:26:14.042Z,35.23
2022-12-11T09:28:46.161Z,36.73
2022-12-11T09:31:23.589Z,40.43
2022-12-11T09:33:52.044Z,40.43
2022-12-11T09:36:19.219Z,37.23
2022-12-11T09:38:46.501Z,36.67
2022-12-11T09:41:22.413Z,36.70
2022-12-11T09:43:59.486Z,34.37
2022-12-11T09:46:33.533Z,43.33
2022-12-11T09:49:04.639Z,36.67
2022-12-11T09:51:46.342Z,40.60
2022-12-11T09:54:14.137Z,38.03
2022-12-11T09:57:13.506Z,42.40
2022-12-11T10:00:02.695Z,37.13
2022-12-11T10:02:55.459Z,34.60
2022-12-11T10:05:47.541Z,38.33
2022-12-11T10:08:14.351Z,38.30
2022-12-11T10:11:22.894Z,35.70
2022-12-11T10:13:54.697Z,36.10
2022-12-11T10:16:35.293Z,34.37
2022-12-11T10:19:02.050Z,36.00
2022-12-11T10:21:34.570Z,32.83
2022-12-11T10:24:04.673Z,35.27
2022-12-11T10:26:31.574Z,37.97
2022-12-11T10:29:00.580Z,33.60
2022-12-11T10:31:44.809Z,35.80
2022-12-11T10:34:15.441Z,33.97
2022-12-11T10:36:43.143Z,36.63
2022-12-11T10:39:15.575Z,35.27
2022-12-11T10:41:44.371Z,35.23
2022-12-11T10:44:22.268Z,35.23
2022-12-11T10:47:03.719Z,33.77
2022-12-11T10:49:33.646Z,35.50
2022-12-11T10:52:01.539Z,28.97
2022-12-11T10:54:38.290Z,28.23
2022-12-11T10:57:07.632Z,28.93
2022-12-11T10:59:39.352Z,32.63
2022-12-11T11:02:16.557Z,28.17
2022-12-11T11:04:44.855Z,28.63
2022-12-11T11:07:26.862Z,31.53
2022-12-11T11:10:11.873Z,28.67
2022-12-11T11:12:44.597Z,26.90
2022-12-11T11:15:25.875Z,30.70
2022-12-11T11:17:59.016Z,33.43
2022-12-11T11:20:29.413Z,31.77
2022-12-11T11:23:11.317Z,31.80
2022-12-11T11:25:38.123Z,28.80
2022-12-11T11:28:07.708Z,30.10
2022-12-11T11:30:37.514Z,29.40
2022-12-11T11:33:18.419Z,25.90
2022-12-11T11:35:53.243Z,26.80
2022-12-11T11:38:22.611Z,29.97
2022-12-11T11:41:21.305Z,28.47
2022-12-11T11:43:55.886Z,28.17
2022-12-11T11:46:37.540Z,25.13
2022-12-11T11:49:17.534Z,28.00
2022-12-11T11:52:15.797Z,29.20
2022-12-11T11:54:57.597Z,27.50
2022-12-11T11:57:35.351Z,29.07
2022-12-11T12:00:10.681Z,44.23
2022-12-11T12:02:41.299Z,29.97
2022-12-11T12:05:13.727Z,35.20
2022-12-11T12:07:49.421Z,30.53
2022-12-11T12:10:33.561Z,31.20
2022-12-11T12:13:48.554Z,24.60
2022-12-11T12:16:52.043Z,27.10
2022-12-11T12:19:54.782Z,27.97
2022-12-11T12:22:56.577Z,32.87
2022-12-11T12:25:29.030Z,26.93
2022-12-11T12:28:22.515Z,32.03
2022-12-11T12:31:02.282Z,30.43
2022-12-11T12:33:38.291Z,26.83
2022-12-11T12:36:14.775Z,31.50
2022-12-11T12:39:01.173Z,27.80
2022-12-11T12:42:09.137Z,28.87
2022-12-11T12:44:47.362Z,27.40
2022-12-11T12:47:17.164Z,29.17
2022-12-11T12:49:47.269Z,33.03
2022-12-11T12:52:22.862Z,26.57
2022-12-11T12:55:14.731Z,33.20
2022-12-11T12:57:57.739Z,36.03
2022-12-11T13:00:36.502Z,38.10
2022-12-11T13:03:14.438Z,34.63
2022-12-11T13:05:44.622Z,34.33
2022-12-11T13:08:13.169Z,33.87
2022-12-11T13:10:43.438Z,36.47
2022-12-11T13:13:32.683Z,35.93
2022-12-11T13:16:27.029Z,39.80
2022-12-11T13:18:53.980Z,34.30
2022-12-11T13:21:35.887Z,38.23
2022-12-11T13:24:21.162Z,32.67
2022-12-11T13:26:49.807Z,38.20
2022-12-11T13:29:41.198Z,40.20
2022-12-11T13:32:07.897Z,36.33
2022-12-11T13:34:38.350Z,38.13
2022-12-11T13:37:07.297Z,36.93
2022-12-11T13:39:39.399Z,37.30
2022-12-11T13:42:21.037Z,35.13
2022-12-11T13:44:48.878Z,33.53
2022-12-11T13:47:18.456Z,36.43
2022-12-11T13:49:48.860Z,48.13
2022-12-11T13:52:19.155Z,43.73
2022-12-11T13:54:51.785Z,40.33
2022-12-11T13:57:25.779Z,43.30
2022-12-11T13:59:57.830Z,41.70
2022-12-11T14:02:35.115Z,35.47
2022-12-11T14:05:05.877Z,41.70
2022-12-11T14:07:46.698Z,35.57
2022-12-11T14:10:16.313Z,42.87
2022-12-11T14:12:53.247Z,41.90
2022-12-11T14:15:20.901Z,43.03
2022-12-11T14:17:51.716Z,40.33
2022-12-11T14:20:24.750Z,44.87
2022-12-11T14:22:51.947Z,42.77
2022-12-11T14:25:24.867Z,35.70
2022-12-11T14:27:55.098Z,44.77
2022-12-11T14:30:33.381Z,52.23
2022-12-11T14:33:05.363Z,44.43
2022-12-11T14:35:40.261Z,42.43
2022-12-11T14:38:30.591Z,39.87
2022-12-11T14:41:02.106Z,47.57
2022-12-11T14:43:33.442Z,39.33
2022-12-11T14:46:08.789Z,37.57
2022-12-11T14:49:03.383Z,42.70
2022-12-11T14:51:35.525Z,34.17
2022-12-11T14:54:04.204Z,38.13
2022-12-11T14:56:31.648Z,38.53
2022-12-11T14:59:06.423Z,41.73
2022-12-11T15:01:35.470Z,41.17
2022-12-11T15:04:14.184Z,44.30
2022-12-11T15:06:49.262Z,42.50
2022-12-11T15:09:24.967Z,37.33
2022-12-11T15:11:53.757Z,45.93
2022-12-11T15:14:22.085Z,45.27
2022-12-11T15:16:50.531Z,45.07
2022-12-11T15:19:25.670Z,40.90
2022-12-11T15:21:53.131Z,45.40
2022-12-11T15:24:27.815Z,44.30
2022-12-11T15:26:59.118Z,38.87
2022-12-11T15:29:38.315Z,39.87
2022-12-11T15:32:08.122Z,47.27
2022-12-11T15:34:45.680Z,46.63
2022-12-11T15:37:25.896Z,40.13
2022-12-11T15:39:53.782Z,44.13
2022-12-11T15:42:39.766Z,41.60
2022-12-11T15:45:09.254Z,44.40
2022-12-11T15:47:36.198Z,39.50
2022-12-11T15:50:24.365Z,42.90
2022-12-11T15:52:53.023Z,43.00
2022-12-11T15:55:21.373Z,41.67
2022-12-11T15:57:54.287Z,46.43
2022-12-11T16:00:23.967Z,40.60
2022-12-11T16:02:52.025Z,52.40
2022-12-11T16:05:19.243Z,37.50
2022-12-11T16:07:46.173Z,41.60
2022-12-11T16:10:17.799Z,48.43
2022-12-11T16:12:45.139Z,45.73
2022-12-11T16:15:16.325Z,42.00
2022-12-11T16:17:46.741Z,40.40
2022-12-11T16:20:15.317Z,42.57
2022-12-11T16:22:42.067Z,36.80
2022-12-11T16:25:08.972Z,42.10
2022-12-11T16:27:35.890Z,42.47
2022-12-11T16:30:02.703Z,39.67
2022-12-11T16:32:29.524Z,45.17
2022-12-11T16:35:00.617Z,48.07
2022-12-11T16:37:27.579Z,40.43
2022-12-11T16:39:54.484Z,41.90
2022-12-11T16:42:21.251Z,38.40
2022-12-11T16:44:48.391Z,39.57
2022-12-11T16:47:15.173Z,41.97
2022-12-11T16:49:44.766Z,41.67
2022-12-11T16:52:11.575Z,44.17
2022-12-11T16:54:38.872Z,40.53
2022-12-11T16:57:05.618Z,39.97
2022-12-11T16:59:37.263Z,39.97
2022-12-11T17:02:04.933Z,40.17
2022-12-11T17:04:32.003Z,40.83
2022-12-11T17:06:58.741Z,39.13
2022-12-11T17:09:25.459Z,36.30
2022-12-11T17:11:53.599Z,35.90
2022-12-11T17:14:20.368Z,41.30
2022-12-11T17:16:48.070Z,40.73
2022-12-11T17:19:15.663Z,41.50
2022-12-11T17:21:46.990Z,41.40
2022-12-11T17:24:17.898Z,37.43
2022-12-11T17:26:44.710Z,45.97
2022-12-11T17:29:12.188Z,36.93
2022-12-11T17:31:39.207Z,32.53
2022-12-11T17:34:06.143Z,30.67
2022-12-11T17:36:32.967Z,35.20
2022-12-11T17:38:59.678Z,32.60
2022-12-11T17:41:26.456Z,30.43
2022-12-11T17:43:54.074Z,33.07
2022-12-11T17:46:22.484Z,35.50
2022-12-11T17:48:49.581Z,35.97
2022-12-11T17:51:23.583Z,30.50
2022-12-11T17:53:55.225Z,32.57
2022-12-11T17:56:22.915Z,36.30
2022-12-11T17:58:49.968Z,33.67
2022-12-11T18:01:17.418Z,32.40
2022-12-11T18:03:44.319Z,34.50
2022-12-11T18:06:14.295Z,30.67
2022-12-11T18:08:42.456Z,33.50
2022-12-11T18:11:13.212Z,34.07
2022-12-11T18:13:40.234Z,32.77
2022-12-11T18:16:10.970Z,35.00
2022-12-11T18:18:38.798Z,32.70
2022-12-11T18:21:06.239Z,25.90
2022-12-11T18:23:33.355Z,32.70
2022-12-11T18:26:00.316Z,32.77
2022-12-11T18:28:27.338Z,31.80
2022-12-11T18:30:54.264Z,28.37
2022-12-11T18:33:21.808Z,25.13
2022-12-11T18:35:50.515Z,24.17
2022-12-11T18:38:17.403Z,27.20
2022-12-11T18:40:44.120Z,30.97
2022-12-11T18:43:11.170Z,37.87
2022-12-11T18:45:42.431Z,39.43
2022-12-11T18:48:09.750Z,26.40
2022-12-11T18:50:36.881Z,32.40
2022-12-11T18:53:04.398Z,30.60
2022-12-11T18:55:31.114Z,28.20
2022-12-11T18:57:58.187Z,30.17
2022-12-11T19:00:24.985Z,27.67
2022-12-11T19:02:52.599Z,26.63
2022-12-11T19:05:19.452Z,28.93
2022-12-11T19:07:46.275Z,30.73
2022-12-11T19:10:13.164Z,26.20
2022-12-11T19:12:40.379Z,26.83
2022-12-11T19:15:07.537Z,29.03
2022-12-11T19:17:34.255Z,26.57
2022-12-11T19:20:18.752Z,28.67
2022-12-11T19:22:47.809Z,28.40
2022-12-11T19:25:14.724Z,28.23
2022-12-11T19:27:41.549Z,29.70
2022-12-11T19:30:10.619Z,28.27
2022-12-11T19:32:37.349Z,28.17
2022-12-11T19:35:04.331Z,25.17
2022-12-11T19:37:31.241Z,30.67
2022-12-11T19:39:58.112Z,29.43
2022-12-11T19:42:26.291Z,32.93
2022-12-11T19:44:53.779Z,29.73
2022-12-11T19:47:20.557Z,26.90
2022-12-11T19:49:48.602Z,27.27
2022-12-11T19:52:15.434Z,30.73
2022-12-11T19:54:42.315Z,31.20
2022-12-11T19:57:12.499Z,31.00
2022-12-11T19:59:40.664Z,25.37
2022-12-11T20:02:10.135Z,25.87
2022-12-11T20:04:36.978Z,30.17
2022-12-11T20:07:04.304Z,29.23
2022-12-11T20:09:33.370Z,31.87
2022-12-11T20:12:00.305Z,28.20
2022-12-11T20:14:27.280Z,33.90
2022-12-11T20:17:13.782Z,33.80
2022-12-11T20:19:41.624Z,36.93
2022-12-11T20:22:09.141Z,43.30
2022-12-11T20:24:36.411Z,31.67
2022-12-11T20:27:03.384Z,37.90
2022-12-11T20:29:30.220Z,30.80
2022-12-11T20:31:59.647Z,30.47
2022-12-11T20:34:27.163Z,31.00
2022-12-11T20:36:54.616Z,31.33
2022-12-11T20:39:21.935Z,33.27
2022-12-11T20:41:48.689Z,32.23
2022-12-11T20:44:15.812Z,29.43
2022-12-11T20:46:43.347Z,29.43
2022-12-11T20:49:13.007Z,31.93
2022-12-11T20:51:40.980Z,30.27
2022-12-11T20:54:07.967Z,25.93
2022-12-11T20:56:34.842Z,24.47
2022-12-11T20:59:01.972Z,27.43
2022-12-11T21:01:32.106Z,27.50
2022-12-11T21:04:00.188Z,33.53
2022-12-11T21:06:35.719Z,23.73
2022-12-11T21:09:07.148Z,29.70
2022-12-11T21:11:34.471Z,26.60
2022-12-11T21:14:01.346Z,32.40
2022-12-11T21:16:28.601Z,28.53
2022-12-11T21:18:57.312Z,30.20
2022-12-11T21:21:24.643Z,32.20
2022-12-11T21:23:51.509Z,30.00
2022-12-11T21:26:18.485Z,32.93
2022-12-11T21:28:45.336Z,27.77
2022-12-11T21:31:14.521Z,28.50
2022-12-11T21:33:41.799Z,25.80
2022-12-11T21:36:11.074Z,27.60
2022-12-11T21:38:38.519Z,24.30
2022-12-11T21:41:17.779Z,27.47
2022-12-11T21:44:47.041Z,24.20
2022-12-11T21:46:34.866Z,30.60
2022-12-11T21:49:01.826Z,34.10
2022-12-11T21:51:36.909Z,31.33
2022-12-11T21:54:06.267Z,29.73
2022-12-11T21:56:33.836Z,25.30
2022-12-11T21:59:01.763Z,29.03
2022-12-11T22:01:33.534Z,24.90
2022-12-11T22:04:01.046Z,29.00
2022-12-11T22:06:28.386Z,28.47
2022-12-11T22:08:55.131Z,27.23
2022-12-11T22:11:27.219Z,26.70
2022-12-11T22:13:54.970Z,27.93
2022-12-11T22:16:37.426Z,25.47
2022-12-11T22:19:13.355Z,26.67
2022-12-11T22:21:40.566Z,23.53
2022-12-11T22:24:07.531Z,29.43
2022-12-11T22:26:34.308Z,30.83
2022-12-11T22:29:01.214Z,24.93
2022-12-11T22:31:28.242Z,27.80
2022-12-11T22:33:55.627Z,26.03
2022-12-11T22:36:25.308Z,24.83
2022-12-11T22:38:52.414Z,29.07
2022-12-11T22:41:31.015Z,29.47
2022-12-11T22:43:58.630Z,25.30
2022-12-11T22:46:28.944Z,28.17
2022-12-11T22:48:57.475Z,29.77
2022-12-11T22:51:24.721Z,29.73
2022-12-11T22:53:51.686Z,28.37
2022-12-11T22:56:18.659Z,28.57
2022-12-11T22:58:46.243Z,27.20
2022-12-11T23:01:17.507Z,31.73
2022-12-11T23:03:45.971Z,28.50
2022-12-11T23:06:15.458Z,30.27
2022-12-11T23:08:43.013Z,27.30
2022-12-11T23:11:18.549Z,30.93
2022-12-11T23:13:45.794Z,33.80
2022-12-11T23:16:13.098Z,27.47
2022-12-11T23:18:40.217Z,28.63
2022-12-11T23:21:07.899Z,27.23
2022-12-11T23:23:38.563Z,24.87
2022-12-11T23:26:07.728Z,27.80
2022-12-11T23:28:35.187Z,25.93
2022-12-11T23:31:02.326Z,35.70
2022-12-11T23:33:29.386Z,26.73
2022-12-11T23:36:01.227Z,29.27
2022-12-11T23:38:28.094Z,27.27
2022-12-11T23:40:55.323Z,26.77
2022-12-11T23:43:22.905Z,30.77
2022-12-11T23:45:50.253Z,26.27
2022-12-11T23:48:17.708Z,31.50
2022-12-11T23:50:45.180Z,27.97
2022-12-11T23:53:12.734Z,29.97
2022-12-11T23:55:41.653Z,26.23
2022-12-11T23:58:08.936Z,31.37
